Time;durP1;ratioP1;P1;durP2;ratioP2;P2;SDS_P1;SDS_P2;PMS_P1;PMS_P2;Temp;Humidity;BMP_temperature;BMP_pressure;BME280_temperature;BME280_humidity;BME280_pressure;Samples;Min_cycle;Max_cycle;Signal;HPM_P1;HPM_P2
2022/12/23 00:01:53;;;;;;;0.50;0.50;;;8.90;99.90;;;;;;4145091;28;20185;-63
2022/12/23 00:03:58;;;;;;;4.97;4.77;;;8.90;99.90;;;;;;4129691;28;20871;-62
2022/12/23 00:06:00;;;;;;;0.80;0.47;;;8.90;99.90;;;;;;4144566;28;20221;-63
2022/12/23 00:08:00;;;;;;;3.50;3.40;;;8.90;99.90;;;;;;4129963;28;20628;-63
2022/12/23 00:10:02;;;;;;;0.97;0.97;;;8.90;99.90;;;;;;4144244;28;20189;-64
2022/12/23 00:16:58;;;;;;;0.87;0.87;;;9.00;99.90;;;;;;4119218;28;20205;-64
2022/12/23 00:18:59;;;;;;;3.83;3.73;;;9.00;99.90;;;;;;4125800;28;20209;-63
2022/12/23 00:21:04;;;;;;;1.43;1.33;;;9.10;99.90;;;;;;4129240;28;20192;-64
2022/12/23 00:23:05;;;;;;;4.33;4.07;;;9.00;99.90;;;;;;4111912;28;20189;-64
2022/12/23 00:25:06;;;;;;;3.50;3.20;;;9.00;99.90;;;;;;4128970;28;20538;-64
2022/12/23 00:27:06;;;;;;;1.07;0.97;;;9.10;99.90;;;;;;4127109;28;20245;-63
2022/12/23 00:29:07;;;;;;;0.50;0.50;;;9.10;99.90;;;;;;4120960;28;20263;-63
2022/12/23 00:31:09;;;;;;;0.50;0.50;;;9.00;99.90;;;;;;4120625;28;20178;-64
2022/12/23 00:33:09;;;;;;;5.50;5.20;;;9.10;99.90;;;;;;4106733;28;20222;-62
2022/12/23 00:35:10;;;;;;;2.63;2.43;;;9.20;99.90;;;;;;4129106;28;20663;-64
2022/12/23 00:37:11;;;;;;;8.77;8.37;;;9.30;99.90;;;;;;4128325;28;20186;-63
2022/12/23 00:43:51;;;;;;;2.33;1.97;;;9.10;99.90;;;;;;4128892;28;20190;-63
2022/12/23 00:45:51;;;;;;;1.07;1.07;;;9.20;99.90;;;;;;4128801;28;20213;-63
2022/12/23 00:50:11;;;;;;;0.40;0.40;;;9.20;99.90;;;;;;4129057;28;20215;-64
2022/12/23 00:52:14;;;;;;;3.00;2.90;;;9.20;99.90;;;;;;4128898;28;20186;-63
2022/12/23 00:54:15;;;;;;;4.57;4.37;;;9.20;99.90;;;;;;4129373;28;20306;-64
2022/12/23 00:56:16;;;;;;;2.90;2.80;;;9.30;99.90;;;;;;4129123;28;20187;-64
2022/12/23 00:58:19;;;;;;;0.93;0.87;;;9.20;99.90;;;;;;4128322;28;20210;-64
2022/12/23 01:05:35;;;;;;;2.37;2.27;;;9.20;99.90;;;;;;4128791;28;20201;-64
2022/12/23 01:07:19;;;;;;;0.50;0.50;;;9.40;99.90;;;;;;4112399;28;20285;-63
2022/12/23 01:09:20;;;;;;;2.10;2.00;;;9.40;99.90;;;;;;4095895;29;20200;-63
2022/12/23 01:11:21;;;;;;;1.13;1.13;;;9.40;99.90;;;;;;4113087;28;20202;-63
2022/12/23 01:13:21;;;;;;;3.70;3.57;;;9.40;99.90;;;;;;4112935;28;20179;-63
2022/12/23 01:15:22;;;;;;;0.27;0.27;;;9.40;99.90;;;;;;4095770;29;20671;-66
2022/12/23 01:17:23;;;;;;;7.37;7.07;;;9.50;99.90;;;;;;4114305;28;20195;-63
2022/12/23 01:19:23;;;;;;;0.50;0.50;;;9.50;99.90;;;;;;4121337;28;20642;-63
2022/12/23 01:21:24;;;;;;;1.73;1.73;;;9.40;99.90;;;;;;4115332;28;20529;-63
2022/12/23 01:23:25;;;;;;;0.70;0.70;;;9.40;99.90;;;;;;4113038;28;20187;-63
2022/12/23 01:25:25;;;;;;;2.30;2.20;;;9.40;99.90;;;;;;4095522;29;20188;-64
2022/12/23 01:27:26;;;;;;;0.40;0.40;;;9.40;99.90;;;;;;4112312;28;20194;-64
2022/12/23 01:29:27;;;;;;;0.77;0.77;;;9.40;99.90;;;;;;4112935;28;20191;-63
2022/12/23 01:31:28;;;;;;;0.70;0.70;;;9.40;99.90;;;;;;4112932;28;20566;-64
2022/12/23 01:33:31;;;;;;;6.90;6.60;;;9.40;99.90;;;;;;4113050;28;20270;-64
2022/12/23 01:35:32;;;;;;;0.80;0.80;;;9.40;99.90;;;;;;4112922;28;20661;-64
2022/12/23 01:37:33;;;;;;;0.57;0.57;;;9.40;99.90;;;;;;4112476;28;20191;-64
2022/12/23 01:39:33;;;;;;;13.40;12.80;;;9.40;99.90;;;;;;4112851;28;20201;-64
2022/12/23 01:43:53;;;;;;;0.57;0.57;;;9.30;99.90;;;;;;4115304;28;20608;-64
2022/12/23 01:45:54;;;;;;;0.60;0.60;;;9.40;99.90;;;;;;4115858;28;20218;-64
2022/12/23 01:48:03;;;;;;;0.40;0.40;;;9.30;99.90;;;;;;4115223;28;20199;-64
2022/12/23 01:50:14;;;;;;;7.10;6.70;;;9.30;99.90;;;;;;4116067;28;20175;-63
2022/12/23 01:52:15;;;;;;;1.97;1.93;;;9.30;99.90;;;;;;4098447;29;20187;-64
2022/12/23 01:54:15;;;;;;;2.00;1.90;;;9.30;99.90;;;;;;4115484;28;20342;-64
2022/12/23 01:56:23;;;;;;;2.97;2.87;;;9.30;99.90;;;;;;4115717;28;20187;-64
2022/12/23 01:58:34;;;;;;;1.53;1.43;;;9.30;99.90;;;;;;4098506;29;20206;-64
2022/12/23 02:05:13;;;;;;;1.23;1.23;;;9.30;99.90;;;;;;4115590;28;20705;-64
2022/12/23 02:09:37;;;;;;;0.73;0.73;;;9.40;99.90;;;;;;4115049;28;20226;-63
2022/12/23 02:12:08;;;;;;;1.43;1.33;;;9.50;99.90;;;;;;4098114;29;20583;-64
2022/12/23 02:17:19;;;;;;;1.17;1.17;;;9.50;99.90;;;;;;4114954;28;20286;-64
2022/12/23 02:19:53;;;;;;;1.20;1.20;;;9.50;99.90;;;;;;4115402;28;20673;-64
2022/12/23 02:22:24;;;;;;;2.70;2.60;;;9.50;99.90;;;;;;4115499;28;20186;-64
2022/12/23 02:25:09;;;;;;;9.43;8.97;;;9.60;99.90;;;;;;4098145;29;20187;-63
2022/12/23 02:27:21;;;;;;;15.23;14.50;;;9.60;99.90;;;;;;4049326;29;20221;-64
2022/12/23 02:29:59;;;;;;;1.83;1.77;;;9.60;99.90;;;;;;4034770;29;20178;-65
2022/12/23 02:32:10;;;;;;;0.30;0.30;;;9.50;99.90;;;;;;4080681;28;20202;-64
2022/12/23 02:34:39;;;;;;;0.93;0.93;;;9.50;99.90;;;;;;4113949;28;20186;-64
2022/12/23 02:36:59;;;;;;;0.63;0.63;;;9.60;99.90;;;;;;4113226;28;20213;-64
2022/12/23 02:39:33;;;;;;;1.13;1.13;;;9.60;99.90;;;;;;4097857;28;20553;-64
2022/12/23 02:41:49;;;;;;;0.57;0.57;;;9.60;99.90;;;;;;4131336;28;20217;-64
2022/12/23 02:43:59;;;;;;;4.70;4.50;;;9.60;99.90;;;;;;4131043;28;20277;-63
2022/12/23 02:46:08;;;;;;;0.40;0.30;;;9.60;99.90;;;;;;4114017;28;20214;-63
2022/12/23 02:48:29;;;;;;;10.07;9.67;;;9.70;99.90;;;;;;4097297;29;20207;-64
2022/12/23 02:50:35;;;;;;;4.63;4.43;;;9.60;99.90;;;;;;4097664;29;20191;-64
2022/12/23 02:52:38;;;;;;;8.97;8.57;;;9.70;99.90;;;;;;4114085;28;20168;-64
2022/12/23 02:54:49;;;;;;;0.90;0.90;;;9.60;99.90;;;;;;4112895;28;20175;-64
2022/12/23 02:56:52;;;;;;;6.90;6.60;;;9.70;99.90;;;;;;4113089;28;20270;-64
2022/12/23 02:59:03;;;;;;;2.33;2.27;;;9.60;99.90;;;;;;4130996;28;20217;-64
2022/12/23 03:01:05;;;;;;;15.73;15.00;;;9.60;99.90;;;;;;4113699;28;20538;-63
2022/12/23 03:03:06;;;;;;;0.63;0.63;;;9.60;99.90;;;;;;4128321;28;20182;-64
2022/12/23 03:05:40;;;;;;;2.90;2.77;;;9.60;99.90;;;;;;4115368;28;20286;-63
2022/12/23 03:07:42;;;;;;;4.30;4.10;;;9.50;99.90;;;;;;4097461;29;20227;-63
2022/12/23 03:10:18;;;;;;;0.70;0.70;;;9.50;99.90;;;;;;4115162;28;20554;-63
2022/12/23 03:12:40;;;;;;;1.50;1.50;;;9.60;99.90;;;;;;4115023;28;20740;-63
2022/12/23 03:15:46;;;;;;;2.27;2.20;;;9.70;99.90;;;;;;4081986;29;20190;-64
2022/12/23 03:18:07;;;;;;;3.27;3.17;;;9.70;99.90;;;;;;4134351;28;20214;-63
2022/12/23 03:20:14;;;;;;;9.37;8.73;;;9.70;99.90;;;;;;4134407;28;20729;-63
2022/12/23 03:22:37;;;;;;;0.30;0.30;;;9.70;99.90;;;;;;4113705;28;20167;-63
2022/12/23 03:25:02;;;;;;;2.60;2.50;;;9.60;99.90;;;;;;4113312;28;20190;-63
2022/12/23 03:27:10;;;;;;;8.73;0.50;;;9.60;99.90;;;;;;4112696;28;20265;-64
2022/12/23 03:29:24;;;;;;;0.40;0.40;;;9.60;99.90;;;;;;4130704;28;20210;-64
2022/12/23 03:31:29;;;;;;;4.40;4.20;;;9.60;99.90;;;;;;4112005;28;20254;-63
2022/12/23 03:33:43;;;;;;;0.87;0.87;;;9.60;99.90;;;;;;4111182;28;20766;-64
2022/12/23 03:36:10;;;;;;;1.57;1.47;;;9.60;99.90;;;;;;4113107;28;20186;-64
2022/12/23 03:38:14;;;;;;;0.80;0.80;;;9.60;99.90;;;;;;4112615;28;20199;-65
2022/12/23 03:40:24;;;;;;;1.90;1.90;;;9.60;99.90;;;;;;4112927;28;20359;-64
2022/12/23 03:42:44;;;;;;;4.77;4.57;;;9.60;99.90;;;;;;4113141;28;20853;-63
2022/12/23 03:44:48;;;;;;;1.47;1.47;;;9.60;99.90;;;;;;4129097;28;20218;-63
2022/12/23 03:47:01;;;;;;;0.30;0.30;;;9.60;99.90;;;;;;4129656;28;20220;-64
2022/12/23 03:49:08;;;;;;;0.60;0.60;;;9.70;99.90;;;;;;4129046;28;20277;-64
2022/12/23 03:51:18;;;;;;;0.50;0.50;;;9.70;99.90;;;;;;4128852;28;20220;-64
2022/12/23 03:53:30;;;;;;;0.40;0.30;;;9.60;99.90;;;;;;4112688;28;20271;-64
2022/12/23 03:55:40;;;;;;;3.20;3.03;;;9.60;99.90;;;;;;4113038;28;20258;-64
2022/12/23 03:57:51;;;;;;;1.90;0.30;;;9.70;99.90;;;;;;4129485;28;20277;-63
2022/12/23 03:59:53;;;;;;;0.37;0.37;;;9.60;99.90;;;;;;4112698;28;20168;-63
2022/12/23 04:02:05;;;;;;;1.33;1.33;;;9.60;99.90;;;;;;4112406;28;20651;-63
2022/12/23 04:04:33;;;;;;;1.90;1.90;;;9.60;99.90;;;;;;4129863;28;20250;-64
2022/12/23 04:06:51;;;;;;;0.40;0.40;;;9.60;99.90;;;;;;4129166;28;20249;-64
2022/12/23 04:08:52;;;;;;;0.80;0.80;;;9.60;99.90;;;;;;4129888;28;20656;-64
2022/12/23 04:10:53;;;;;;;1.27;1.27;;;9.70;99.90;;;;;;4129859;28;20653;-64
2022/12/23 04:12:54;;;;;;;12.07;11.57;;;9.60;99.90;;;;;;4128520;28;20174;-64
2022/12/23 04:14:55;;;;;;;4.60;4.37;;;9.60;99.90;;;;;;4096392;29;20278;-64
2022/12/23 04:16:58;;;;;;;2.57;2.47;;;9.60;99.90;;;;;;4128967;28;20273;-64
2022/12/23 04:18:58;;;;;;;0.40;0.40;;;9.70;99.90;;;;;;4129514;28;20260;-64
2022/12/23 04:20:59;;;;;;;0.30;0.30;;;9.70;99.90;;;;;;4129611;28;20665;-64
2022/12/23 04:23:00;;;;;;;0.23;0.23;;;9.80;99.90;;;;;;4129681;28;20178;-63
2022/12/23 04:25:00;;;;;;;1.80;1.73;;;9.80;99.90;;;;;;4129095;28;20197;-63
2022/12/23 04:27:01;;;;;;;0.30;0.30;;;9.70;99.90;;;;;;4128970;28;20253;-64
2022/12/23 04:29:02;;;;;;;3.43;3.33;;;9.70;99.90;;;;;;4129798;28;20217;-64
2022/12/23 04:31:03;;;;;;;3.57;3.40;;;9.70;99.90;;;;;;4129296;28;20190;-64
2022/12/23 04:33:03;;;;;;;1.37;1.37;;;9.70;99.90;;;;;;4129725;28;20265;-64
2022/12/23 04:35:05;;;;;;;6.50;5.97;;;9.70;99.90;;;;;;4129766;28;20189;-64
2022/12/23 04:37:05;;;;;;;0.40;0.30;;;9.70;99.90;;;;;;4128977;28;20193;-64
2022/12/23 04:39:06;;;;;;;0.40;0.40;;;9.70;99.90;;;;;;4130046;28;20217;-64
2022/12/23 04:41:07;;;;;;;2.23;0.40;;;9.80;99.90;;;;;;4129346;28;20197;-64
2022/12/23 04:43:07;;;;;;;0.50;0.30;;;9.70;99.90;;;;;;4112160;28;20222;-64
2022/12/23 04:45:09;;;;;;;0.40;0.40;;;9.80;99.90;;;;;;4129292;28;20205;-64
2022/12/23 04:47:09;;;;;;;0.60;0.50;;;9.80;99.90;;;;;;4128779;28;20309;-64
2022/12/23 04:49:10;;;;;;;2.10;2.00;;;9.80;99.90;;;;;;4129092;28;20205;-63
2022/12/23 04:51:11;;;;;;;2.03;1.97;;;9.80;99.90;;;;;;4129270;28;21032;-64
2022/12/23 04:53:11;;;;;;;1.40;0.60;;;9.70;99.90;;;;;;4129203;28;20237;-64
2022/12/23 04:55:12;;;;;;;6.97;6.60;;;9.80;99.90;;;;;;4129372;28;20214;-63
2022/12/23 04:57:14;;;;;;;1.40;1.00;;;9.70;99.90;;;;;;4128681;28;20225;-64
2022/12/23 04:59:15;;;;;;;0.70;0.70;;;9.80;99.90;;;;;;4129443;28;20305;-63
2022/12/23 05:01:15;;;;;;;0.90;0.67;;;9.70;99.90;;;;;;4129075;28;20567;-64
2022/12/23 05:03:16;;;;;;;3.70;1.03;;;9.80;99.90;;;;;;4129189;28;20194;-64
2022/12/23 05:05:17;;;;;;;0.40;0.40;;;9.80;99.90;;;;;;4129325;28;20671;-64
2022/12/23 05:07:17;;;;;;;1.93;1.83;;;9.80;99.90;;;;;;4111144;28;20574;-64
2022/12/23 05:09:18;;;;;;;0.30;0.30;;;9.80;99.90;;;;;;4124544;28;20237;-64
2022/12/23 05:11:19;;;;;;;0.90;0.90;;;9.80;99.90;;;;;;4113022;28;20183;-64
2022/12/23 05:13:20;;;;;;;0.77;0.40;;;9.90;99.90;;;;;;4112945;28;20558;-64
2022/12/23 05:15:20;;;;;;;5.57;5.33;;;9.80;99.90;;;;;;4113539;28;20183;-62
2022/12/23 05:17:21;;;;;;;0.43;0.43;;;9.80;99.90;;;;;;4116081;28;20255;-62
2022/12/23 05:19:22;;;;;;;0.63;0.43;;;9.80;99.90;;;;;;4123161;28;20195;-62
2022/12/23 05:21:23;;;;;;;0.53;0.40;;;9.70;99.90;;;;;;4116711;28;20194;-62
2022/12/23 05:23:23;;;;;;;11.13;10.63;;;9.80;99.90;;;;;;4116905;28;20801;-62
2022/12/23 05:25:24;;;;;;;1.10;1.10;;;9.80;99.90;;;;;;4116399;28;20198;-62
2022/12/23 05:27:25;;;;;;;0.97;0.60;;;9.70;99.90;;;;;;4115646;28;20207;-62
2022/12/23 05:29:25;;;;;;;0.60;0.60;;;9.80;99.90;;;;;;4116310;28;20563;-62
2022/12/23 05:31:26;;;;;;;0.80;0.80;;;9.80;99.90;;;;;;4100440;28;20600;-62
2022/12/23 05:33:27;;;;;;;2.00;1.90;;;9.80;99.90;;;;;;4121706;28;20245;-62
2022/12/23 05:35:28;;;;;;;7.33;7.03;;;9.80;99.90;;;;;;4132109;28;20186;-62
2022/12/23 05:37:28;;;;;;;0.30;0.30;;;9.80;99.90;;;;;;4131591;28;20193;-63
2022/12/23 05:39:29;;;;;;;0.50;0.50;;;9.80;99.90;;;;;;4132271;28;20182;-63
2022/12/23 05:41:30;;;;;;;3.77;3.57;;;9.90;99.90;;;;;;4132428;28;20194;-63
2022/12/23 05:43:30;;;;;;;0.90;0.90;;;9.90;99.90;;;;;;4132359;28;20213;-63
2022/12/23 05:45:36;;;;;;;0.93;0.93;;;9.90;99.90;;;;;;4132062;28;20228;-63
2022/12/23 05:47:37;;;;;;;1.37;1.30;;;9.80;99.90;;;;;;4131392;28;20193;-63
2022/12/23 05:49:38;;;;;;;10.20;9.77;;;9.80;99.90;;;;;;4132287;28;20194;-63
2022/12/23 05:51:38;;;;;;;1.10;1.00;;;9.80;99.90;;;;;;4132093;28;20194;-63
2022/12/23 05:53:39;;;;;;;0.57;0.50;;;9.80;99.90;;;;;;4132287;28;20190;-63
2022/12/23 05:55:40;;;;;;;0.30;0.30;;;9.80;99.90;;;;;;4132351;28;20284;-63
2022/12/23 05:57:40;;;;;;;2.43;2.33;;;9.80;99.90;;;;;;4131073;28;20218;-63
2022/12/23 05:59:41;;;;;;;1.93;1.87;;;9.80;99.90;;;;;;4131915;28;20217;-63
2022/12/23 06:01:42;;;;;;;1.57;0.50;;;9.90;99.90;;;;;;4131942;28;20623;-62
2022/12/23 06:03:42;;;;;;;0.50;0.50;;;9.90;99.90;;;;;;4131842;28;20229;-62
2022/12/23 06:05:43;;;;;;;1.67;1.57;;;9.90;99.90;;;;;;4132053;28;20202;-62
2022/12/23 06:07:44;;;;;;;4.93;4.73;;;9.90;99.90;;;;;;4131320;28;21453;-62
2022/12/23 06:09:44;;;;;;;0.30;0.30;;;9.90;99.90;;;;;;4131718;28;20202;-64
2022/12/23 06:11:45;;;;;;;7.87;7.47;;;9.90;99.90;;;;;;4131808;28;20188;-64
2022/12/23 06:13:45;;;;;;;0.93;0.93;;;9.90;99.90;;;;;;4131643;28;20197;-64
2022/12/23 06:15:46;;;;;;;0.93;0.93;;;9.90;99.90;;;;;;4114205;28;20233;-63
2022/12/23 06:17:48;;;;;;;0.50;0.50;;;9.90;99.90;;;;;;4130976;28;20654;-63
2022/12/23 06:19:48;;;;;;;10.33;9.90;;;9.90;99.90;;;;;;4114160;28;20188;-64
2022/12/23 06:21:49;;;;;;;0.73;0.73;;;9.90;99.90;;;;;;4131557;28;20193;-63
2022/12/23 06:23:50;;;;;;;1.37;1.37;;;9.80;99.90;;;;;;4131054;28;20691;-63
2022/12/23 06:25:58;;;;;;;6.20;5.90;;;9.80;99.90;;;;;;4131428;28;20876;-63
2022/12/23 06:27:59;;;;;;;0.50;0.50;;;9.70;99.90;;;;;;4130630;28;20226;-63
2022/12/23 06:30:00;;;;;;;0.47;0.47;;;9.80;99.90;;;;;;4129941;28;20222;-63
2022/12/23 06:32:00;;;;;;;0.40;0.40;;;9.80;99.90;;;;;;4131158;28;20194;-63
2022/12/23 06:34:01;;;;;;;0.80;0.80;;;9.80;99.90;;;;;;4131333;28;20213;-63
2022/12/23 06:36:02;;;;;;;0.50;0.50;;;9.90;99.90;;;;;;4131234;28;20190;-64
2022/12/23 06:38:02;;;;;;;0.53;0.53;;;9.90;99.90;;;;;;4130678;28;20218;-64
2022/12/23 06:40:04;;;;;;;1.87;1.77;;;9.90;99.90;;;;;;4113758;28;20265;-64
2022/12/23 06:42:04;;;;;;;1.10;1.10;;;9.80;99.90;;;;;;4130940;28;20201;-64
2022/12/23 06:44:05;;;;;;;2.47;2.30;;;9.80;99.90;;;;;;4131036;28;20572;-64
2022/12/23 06:46:06;;;;;;;3.47;3.37;;;9.80;99.90;;;;;;4113537;28;20238;-63
2022/12/23 06:48:07;;;;;;;0.90;0.90;;;9.70;99.90;;;;;;4130092;28;20205;-64
2022/12/23 06:50:08;;;;;;;2.80;2.70;;;9.80;99.90;;;;;;4131019;28;20204;-64
2022/12/23 06:52:09;;;;;;;1.43;1.43;;;9.80;99.90;;;;;;4130973;28;20182;-64
2022/12/23 06:54:10;;;;;;;0.60;0.60;;;9.70;99.90;;;;;;4130947;28;20630;-64
2022/12/23 06:56:11;;;;;;;2.13;2.03;;;9.70;99.90;;;;;;4130912;28;20675;-62
2022/12/23 06:58:12;;;;;;;0.50;0.47;;;9.70;99.90;;;;;;4130401;28;20218;-63
2022/12/23 07:00:13;;;;;;;0.60;0.60;;;9.60;99.90;;;;;;4131673;28;20198;-64
2022/12/23 07:02:14;;;;;;;0.63;0.63;;;9.60;99.90;;;;;;4132020;28;20194;-64
2022/12/23 07:04:15;;;;;;;1.10;0.87;;;9.60;99.90;;;;;;4130838;28;20557;-62
2022/12/23 07:06:15;;;;;;;0.53;0.53;;;9.70;99.90;;;;;;4121742;28;20639;-62
2022/12/23 07:08:17;;;;;;;0.53;0.53;;;9.60;99.90;;;;;;4113835;28;20598;-62
2022/12/23 07:10:18;;;;;;;0.60;0.60;;;9.70;99.90;;;;;;4114575;28;20615;-62
2022/12/23 07:12:18;;;;;;;0.60;0.50;;;9.70;99.90;;;;;;4114747;28;20271;-63
2022/12/23 07:14:19;;;;;;;1.30;1.20;;;9.70;99.90;;;;;;4114851;28;20202;-63
2022/12/23 07:16:20;;;;;;;1.77;1.40;;;9.80;99.90;;;;;;4117955;28;20380;-63
2022/12/23 07:18:22;;;;;;;1.40;1.30;;;9.80;99.90;;;;;;4124069;28;20210;-64
2022/12/23 07:20:22;;;;;;;0.53;0.53;;;9.80;99.90;;;;;;4101139;29;20740;-63
2022/12/23 07:22:23;;;;;;;1.27;1.27;;;9.80;99.90;;;;;;4115145;28;20191;-63
2022/12/23 07:24:24;;;;;;;0.47;0.40;;;9.70;99.90;;;;;;4114853;28;20824;-63
2022/12/23 07:26:25;;;;;;;0.43;0.43;;;9.80;99.90;;;;;;4114288;28;20225;-63
2022/12/23 07:28:25;;;;;;;3.33;3.23;;;9.70;99.90;;;;;;4114835;28;20206;-63
2022/12/23 07:30:27;;;;;;;1.00;1.00;;;9.70;99.90;;;;;;4115689;28;20222;-63
2022/12/23 07:32:28;;;;;;;2.97;2.87;;;9.80;99.90;;;;;;4115064;28;20187;-63
2022/12/23 07:34:28;;;;;;;0.63;0.63;;;9.80;99.90;;;;;;4114963;28;20186;-63
2022/12/23 07:36:29;;;;;;;0.70;0.70;;;9.80;99.90;;;;;;4114618;28;20233;-62
2022/12/23 07:38:30;;;;;;;3.00;2.17;;;10.00;99.90;;;;;;4114735;28;20662;-64
2022/12/23 07:40:30;;;;;;;3.83;2.07;;;10.00;99.90;;;;;;4114602;28;20642;-63
2022/12/23 07:42:31;;;;;;;3.03;1.37;;;10.10;99.90;;;;;;4114680;28;20709;-64
2022/12/23 07:44:32;;;;;;;1.43;1.17;;;10.10;99.90;;;;;;4114703;28;20559;-62
2022/12/23 07:46:32;;;;;;;1.40;1.00;;;10.20;99.90;;;;;;4113744;28;20595;-63
2022/12/23 07:48:33;;;;;;;1.60;1.27;;;10.20;99.90;;;;;;4114534;28;20218;-63
2022/12/23 07:50:34;;;;;;;1.00;0.93;;;10.30;99.90;;;;;;4097331;29;20184;-63
2022/12/23 07:52:34;;;;;;;1.23;1.07;;;10.30;99.90;;;;;;4114311;28;20600;-62
2022/12/23 07:54:35;;;;;;;1.83;0.90;;;10.30;99.90;;;;;;4097084;29;20238;-62
2022/12/23 07:56:36;;;;;;;0.90;0.90;;;10.40;99.90;;;;;;4113610;28;20195;-63
2022/12/23 07:58:36;;;;;;;1.10;1.00;;;10.30;99.90;;;;;;4114378;28;20212;-62
2022/12/23 08:00:37;;;;;;;1.03;0.90;;;10.30;99.90;;;;;;4113951;28;20191;-63
2022/12/23 08:02:38;;;;;;;1.67;1.10;;;10.40;99.90;;;;;;4113980;28;20253;-63
2022/12/23 08:04:38;;;;;;;2.60;1.93;;;10.40;99.90;;;;;;4113697;28;20201;-63
2022/12/23 08:06:40;;;;;;;2.93;2.83;;;10.50;99.90;;;;;;4113257;28;20219;-63
2022/12/23 08:08:44;;;;;;;1.10;1.10;;;10.50;99.90;;;;;;4113499;28;20218;-62
2022/12/23 08:10:44;;;;;;;1.10;0.70;;;10.30;99.90;;;;;;4113694;28;20184;-62
2022/12/23 08:12:45;;;;;;;1.27;0.70;;;10.30;99.90;;;;;;4113610;28;20608;-63
2022/12/23 08:14:47;;;;;;;0.73;0.60;;;10.30;99.90;;;;;;4113544;28;20258;-62
2022/12/23 08:16:48;;;;;;;0.60;0.60;;;10.40;99.90;;;;;;4113058;28;20730;-63
2022/12/23 08:18:48;;;;;;;0.70;0.70;;;10.40;99.90;;;;;;4096234;29;20278;-63
2022/12/23 08:21:00;;;;;;;1.30;1.00;;;10.30;99.90;;;;;;4113410;28;20191;-63
2022/12/23 08:23:01;;;;;;;0.70;0.70;;;10.50;99.90;;;;;;4113679;28;20195;-63
2022/12/23 08:25:02;;;;;;;3.40;2.17;;;10.70;99.90;;;;;;4120561;28;20194;-63
2022/12/23 08:27:03;;;;;;;3.40;1.60;;;10.70;99.90;;;;;;4128783;28;20665;-63
2022/12/23 08:29:03;;;;;;;1.10;0.80;;;10.60;99.90;;;;;;4129464;28;20217;-63
2022/12/23 08:31:09;;;;;;;4.97;1.87;;;10.60;99.90;;;;;;4129428;28;20190;-62
2022/12/23 08:33:10;;;;;;;2.20;0.93;;;10.60;99.90;;;;;;4112169;28;20187;-63
2022/12/23 08:35:11;;;;;;;1.53;1.23;;;10.70;99.90;;;;;;4129425;28;20241;-63
2022/12/23 08:37:12;;;;;;;1.43;0.90;;;10.70;99.90;;;;;;4128678;28;20198;-63
2022/12/23 08:39:13;;;;;;;3.63;1.00;;;10.70;99.90;;;;;;4129346;28;20202;-63
2022/12/23 08:41:18;;;;;;;2.47;1.10;;;10.70;99.90;;;;;;4111914;28;20226;-62
2022/12/23 08:43:18;;;;;;;1.47;0.90;;;10.70;99.90;;;;;;4111849;28;20186;-63
2022/12/23 08:45:20;;;;;;;1.67;0.73;;;10.70;99.90;;;;;;4125999;28;20190;-63
2022/12/23 08:47:21;;;;;;;1.13;0.70;;;10.60;99.90;;;;;;4128679;28;20214;-63
2022/12/23 08:49:22;;;;;;;2.00;0.73;;;10.50;99.90;;;;;;4129220;28;20217;-63
2022/12/23 08:51:24;;;;;;;3.50;1.30;;;10.70;99.90;;;;;;4129391;28;20671;-63
2022/12/23 08:53:25;;;;;;;1.80;0.80;;;10.70;99.90;;;;;;4111202;28;20218;-63
2022/12/23 08:55:25;;;;;;;3.10;1.00;;;10.70;99.90;;;;;;4129355;28;20205;-63
2022/12/23 08:57:26;;;;;;;3.33;1.00;;;10.70;99.90;;;;;;4110774;28;20217;-63
2022/12/23 08:59:27;;;;;;;2.07;1.00;;;10.60;99.90;;;;;;4123678;28;20208;-63
2022/12/23 09:01:30;;;;;;;3.80;0.80;;;10.80;99.90;;;;;;4132866;28;20193;-62
2022/12/23 09:03:31;;;;;;;2.27;1.10;;;10.80;99.90;;;;;;4127233;28;20298;-63
2022/12/23 09:05:33;;;;;;;3.80;2.07;;;10.80;99.90;;;;;;4141158;28;20698;-63
2022/12/23 09:07:34;;;;;;;5.77;1.87;;;10.80;99.90;;;;;;4110303;28;20725;-63
2022/12/23 09:09:37;;;;;;;5.27;2.90;;;11.00;99.90;;;;;;4139043;28;20186;-63
2022/12/23 09:11:37;;;;;;;4.47;2.40;;;11.20;99.90;;;;;;4103903;28;20234;-64
2022/12/23 09:13:39;;;;;;;2.57;1.70;;;11.20;99.90;;;;;;4140405;28;20766;-63
2022/12/23 09:15:42;;;;;;;3.13;1.50;;;11.30;99.90;;;;;;4136842;28;20697;-64
2022/12/23 09:17:43;;;;;;;1.20;1.00;;;11.40;99.90;;;;;;4144331;28;20218;-64
2022/12/23 09:19:44;;;;;;;0.90;0.90;;;11.60;99.90;;;;;;4133922;28;20193;-63
2022/12/23 09:21:44;;;;;;;0.80;0.70;;;11.40;99.90;;;;;;4139666;28;20197;-63
2022/12/23 09:23:46;;;;;;;0.40;0.40;;;11.20;99.90;;;;;;4134185;28;20185;-65
2022/12/23 09:25:46;;;;;;;0.60;0.60;;;11.20;99.90;;;;;;4139321;28;20190;-64
2022/12/23 09:27:47;;;;;;;1.20;1.00;;;11.20;99.90;;;;;;4133531;28;20700;-63
2022/12/23 09:29:47;;;;;;;0.90;0.77;;;11.20;99.90;;;;;;4138904;28;20673;-64
2022/12/23 09:31:48;;;;;;;1.50;1.27;;;11.20;99.90;;;;;;4134394;28;20708;-63
2022/12/23 09:33:52;;;;;;;1.60;1.00;;;11.40;99.90;;;;;;4138811;28;20735;-64
2022/12/23 09:35:58;;;;;;;1.43;1.10;;;11.40;99.90;;;;;;4127313;28;20249;-63
2022/12/23 09:37:59;;;;;;;5.37;1.50;;;11.40;99.90;;;;;;4136981;28;20619;-63
2022/12/23 09:40:00;;;;;;;5.43;1.57;;;11.50;99.90;;;;;;4135846;28;20197;-63
2022/12/23 09:42:26;;;;;;;2.10;1.10;;;11.60;99.90;;;;;;4127256;28;20764;-63
2022/12/23 09:45:10;;;;;;;2.90;1.40;;;11.60;99.90;;;;;;4135575;28;20201;-63
2022/12/23 09:47:17;;;;;;;3.63;2.50;;;11.70;99.90;;;;;;4096006;28;20215;-63
2022/12/23 09:49:21;;;;;;;2.10;1.17;;;11.70;99.90;;;;;;4127234;28;20207;-63
2022/12/23 09:51:22;;;;;;;2.20;1.47;;;11.80;99.90;;;;;;4127065;28;20237;-63
2022/12/23 09:53:36;;;;;;;2.50;1.23;;;11.90;99.90;;;;;;4127435;28;20178;-63
2022/12/23 09:56:12;;;;;;;1.47;1.13;;;12.00;99.90;;;;;;4127459;28;20749;-63
2022/12/23 09:58:23;;;;;;;0.50;0.50;;;12.00;99.90;;;;;;4134733;28;20313;-63
2022/12/23 10:00:28;;;;;;;0.77;0.70;;;12.00;99.90;;;;;;4126922;28;20273;-63
2022/12/23 10:02:29;;;;;;;1.70;0.90;;;11.90;99.90;;;;;;4133125;28;20681;-63
2022/12/23 10:05:20;;;;;;;1.23;1.03;;;11.70;99.90;;;;;;4141327;28;20335;-63
2022/12/23 10:07:32;;;;;;;0.83;0.73;;;11.70;99.90;;;;;;4105994;28;20245;-63
2022/12/23 10:09:41;;;;;;;1.17;0.80;;;11.60;99.90;;;;;;4129790;28;20590;-63
2022/12/23 10:11:45;;;;;;;0.60;0.60;;;11.70;99.90;;;;;;4129844;28;20197;-63
2022/12/23 10:14:19;;;;;;;2.10;1.07;;;11.80;99.90;;;;;;4129838;28;20190;-64
2022/12/23 10:16:28;;;;;;;1.30;0.97;;;11.90;99.90;;;;;;4129831;28;20186;-63
2022/12/23 10:18:56;;;;;;;1.17;0.80;;;11.90;99.90;;;;;;4129520;28;20237;-64
2022/12/23 10:21:08;;;;;;;5.53;2.20;;;11.90;99.90;;;;;;4129592;28;20616;-65
2022/12/23 10:23:16;;;;;;;3.90;1.63;;;11.90;99.90;;;;;;4110529;28;20266;-63
2022/12/23 10:25:40;;;;;;;2.70;0.90;;;11.90;99.90;;;;;;4145580;28;20704;-63
2022/12/23 10:27:43;;;;;;;1.77;1.00;;;11.70;99.90;;;;;;4128919;28;20682;-64
2022/12/23 10:29:44;;;;;;;3.80;1.60;;;11.60;99.90;;;;;;4129339;28;20248;-65
2022/12/23 10:32:25;;;;;;;3.57;1.80;;;11.70;99.90;;;;;;4135564;28;20673;-64
2022/12/23 10:34:53;;;;;;;1.67;1.00;;;11.80;99.90;;;;;;4136097;28;20236;-63
2022/12/23 10:37:06;;;;;;;3.13;1.60;;;11.60;99.90;;;;;;4128890;28;20634;-65
2022/12/23 10:39:25;;;;;;;2.57;1.37;;;11.60;99.90;;;;;;4113657;28;20213;-65
2022/12/23 10:41:38;;;;;;;3.13;1.43;;;11.70;99.90;;;;;;4129406;28;20194;-64
2022/12/23 10:44:39;;;;;;;3.43;1.83;;;11.70;99.90;;;;;;4135158;28;20209;-65
2022/12/23 10:47:08;;;;;;;2.73;1.30;;;11.60;99.90;;;;;;4051633;29;20290;-65
2022/12/23 10:49:55;;;;;;;5.67;2.40;;;11.50;99.90;;;;;;4104230;28;20242;-64
2022/12/23 10:52:09;;;;;;;1.07;0.90;;;11.50;99.90;;;;;;4137154;28;20193;-64
2022/12/23 10:54:26;;;;;;;0.60;0.60;;;11.40;99.90;;;;;;4106505;28;20187;-64
2022/12/23 10:56:30;;;;;;;1.10;0.80;;;11.30;99.90;;;;;;4120829;28;20179;-64
2022/12/23 10:58:31;;;;;;;1.30;0.90;;;11.30;99.90;;;;;;4134882;28;20218;-63
2022/12/23 11:00:33;;;;;;;2.23;1.20;;;11.30;99.90;;;;;;4141937;28;20247;-64
2022/12/23 11:02:46;;;;;;;1.70;1.20;;;11.50;99.90;;;;;;4128981;28;20190;-64
2022/12/23 11:04:48;;;;;;;3.27;1.43;;;11.50;99.90;;;;;;4144294;28;20177;-64
2022/12/23 11:06:51;;;;;;;2.00;1.30;;;11.60;99.90;;;;;;4131820;28;20305;-63
2022/12/23 11:08:52;;;;;;;3.37;1.20;;;11.60;99.90;;;;;;4128934;28;20288;-65
2022/12/23 11:10:54;;;;;;;2.30;1.57;;;11.60;99.90;;;;;;4131985;28;20182;-64
2022/12/23 11:12:55;;;;;;;1.47;1.10;;;11.60;99.90;;;;;;4148487;28;20189;-64
2022/12/23 11:14:57;;;;;;;1.20;1.03;;;11.50;99.90;;;;;;4138741;28;20233;-64
2022/12/23 11:16:58;;;;;;;1.10;1.00;;;11.30;99.90;;;;;;4131326;28;20218;-63
2022/12/23 11:19:08;;;;;;;1.57;0.93;;;11.30;99.90;;;;;;4138322;28;20248;-63
2022/12/23 11:21:13;;;;;;;2.03;1.27;;;11.30;99.90;;;;;;4100053;28;20195;-63
2022/12/23 11:23:25;;;;;;;1.70;1.27;;;11.20;99.90;;;;;;4144191;28;20277;-62
2022/12/23 11:25:41;;;;;;;3.50;1.30;;;11.30;99.90;;;;;;4132220;28;20197;-63
2022/12/23 11:27:44;;;;;;;3.63;1.40;;;11.40;99.90;;;;;;4128258;28;20213;-63
2022/12/23 11:29:50;;;;;;;2.67;1.17;;;11.30;99.90;;;;;;4135881;28;20186;-63